Time;durP1;ratioP1;P1;durP2;ratioP2;P2;SDS_P1;SDS_P2;PMS_P1;PMS_P2;Temp;Humidity;BMP_temperature;BMP_pressure;BME280_temperature;BME280_humidity;BME280_pressure;Samples;Min_cycle;Max_cycle;Signal;HPM_P1;HPM_P2
2023/10/20 00:01:10;;;;;;;12.32;7.15;;;;;;;;;;5067355;28;20029;-83
2023/10/20 00:03:35;;;;;;;11.70;8.07;;;;;;;;;;5065660;28;20063;-81
2023/10/20 00:06:01;;;;;;;12.57;7.68;;;;;;;;;;5066063;28;20539;-82
2023/10/20 00:08:27;;;;;;;11.15;7.88;;;;;;;;;;5078750;28;20532;-83
2023/10/20 00:10:57;;;;;;;10.30;7.90;;;;;;;;;;5059913;28;20036;-78
2023/10/20 00:13:22;;;;;;;12.25;8.05;;;;;;;;;;5065430;28;20036;-81
2023/10/20 00:15:48;;;;;;;11.85;7.85;;;;;;;;;;5061171;28;20032;-81
2023/10/20 00:18:13;;;;;;;15.00;8.30;;;;;;;;;;5057376;28;20155;-81
2023/10/20 00:20:39;;;;;;;13.43;8.70;;;;;;;;;;5067041;28;20035;-81
2023/10/20 00:23:05;;;;;;;15.68;9.57;;;;;;;;;;5068350;28;20028;-81
2023/10/20 00:25:31;;;;;;;15.63;10.10;;;;;;;;;;5066083;28;20032;-81
2023/10/20 00:27:56;;;;;;;12.05;8.90;;;;;;;;;;5062507;28;20032;-81
2023/10/20 00:30:21;;;;;;;12.50;8.77;;;;;;;;;;5058855;28;20032;-81
2023/10/20 00:32:47;;;;;;;14.15;9.02;;;;;;;;;;5061537;28;20061;-81
2023/10/20 00:35:13;;;;;;;15.35;9.60;;;;;;;;;;5069719;28;20025;-81
2023/10/20 00:37:39;;;;;;;13.45;9.57;;;;;;;;;;5066211;28;20036;-81
2023/10/20 00:40:09;;;;;;;13.80;8.88;;;;;;;;;;5079439;28;20029;-81
2023/10/20 00:42:35;;;;;;;11.48;8.50;;;;;;;;;;5038579;28;20116;-81
2023/10/20 00:45:01;;;;;;;12.70;8.98;;;;;;;;;;5043528;28;20050;-82
2023/10/20 00:47:27;;;;;;;12.10;8.45;;;;;;;;;;5071075;28;20106;-82
2023/10/20 00:49:53;;;;;;;11.93;8.48;;;;;;;;;;5066248;28;20036;-81
2023/10/20 00:52:20;;;;;;;12.25;8.30;;;;;;;;;;5062168;28;20051;-81
2023/10/20 00:54:47;;;;;;;11.95;8.77;;;;;;;;;;5040209;28;20079;-81
2023/10/20 00:57:16;;;;;;;11.73;8.13;;;;;;;;;;5056039;28;20376;-82
2023/10/20 00:59:42;;;;;;;12.75;8.90;;;;;;;;;;5071901;28;20036;-81
2023/10/20 01:02:08;;;;;;;11.60;8.13;;;;;;;;;;5071743;28;20017;-83
2023/10/20 01:04:33;;;;;;;13.10;8.30;;;;;;;;;;5068262;28;20070;-83
2023/10/20 01:06:59;;;;;;;11.18;7.90;;;;;;;;;;5048398;28;20044;-83
2023/10/20 01:09:28;;;;;;;22.00;8.05;;;;;;;;;;5061507;28;20087;-83
2023/10/20 01:11:55;;;;;;;13.93;8.88;;;;;;;;;;5075175;28;20493;-82
2023/10/20 01:14:20;;;;;;;10.80;7.60;;;;;;;;;;5070528;28;20024;-82
2023/10/20 01:16:47;;;;;;;13.77;8.20;;;;;;;;;;5067467;28;20032;-82
2023/10/20 01:19:13;;;;;;;12.68;7.78;;;;;;;;;;5064125;28;20036;-82
2023/10/20 01:21:39;;;;;;;12.75;7.90;;;;;;;;;;5058072;28;20025;-82
2023/10/20 01:24:05;;;;;;;12.63;7.55;;;;;;;;;;5062168;28;20051;-81
2023/10/20 01:26:33;;;;;;;10.35;7.43;;;;;;;;;;5089677;28;20157;-82
2023/10/20 01:28:59;;;;;;;13.18;8.32;;;;;;;;;;5068893;28;20024;-81
2023/10/20 01:31:25;;;;;;;13.07;8.32;;;;;;;;;;5061570;28;20394;-81
2023/10/20 01:33:51;;;;;;;10.10;7.53;;;;;;;;;;5058441;28;20194;-82
2023/10/20 01:36:16;;;;;;;11.40;8.00;;;;;;;;;;5056725;28;20021;-82
2023/10/20 01:38:44;;;;;;;9.63;7.70;;;;;;;;;;5069522;28;20060;-81
2023/10/20 01:41:09;;;;;;;13.25;8.30;;;;;;;;;;5085281;28;20082;-82
2023/10/20 01:43:35;;;;;;;9.82;7.60;;;;;;;;;;5064803;28;20033;-82
2023/10/20 01:46:01;;;;;;;14.43;7.93;;;;;;;;;;5060608;28;20033;-81
2023/10/20 01:48:27;;;;;;;12.90;8.68;;;;;;;;;;5058398;28;20037;-82
2023/10/20 01:50:53;;;;;;;13.35;8.40;;;;;;;;;;5064259;28;20374;-79
2023/10/20 01:53:18;;;;;;;12.57;8.07;;;;;;;;;;5069248;28;20085;-82
2023/10/20 01:55:49;;;;;;;12.98;7.75;;;;;;;;;;5049086;28;20035;-82
2023/10/20 01:58:19;;;;;;;11.73;8.50;;;;;;;;;;5076344;28;20059;-82
2023/10/20 02:00:49;;;;;;;12.32;8.30;;;;;;;;;;5058262;28;20036;-82
2023/10/20 02:03:14;;;;;;;13.82;9.43;;;;;;;;;;5063155;28;20029;-82
2023/10/20 02:05:40;;;;;;;13.48;9.18;;;;;;;;;;5074109;28;20036;-82
2023/10/20 02:08:08;;;;;;;16.00;8.70;;;;;;;;;;5068895;28;20035;-82
2023/10/20 02:10:34;;;;;;;15.43;9.00;;;;;;;;;;5062857;28;20017;-82
2023/10/20 02:13:00;;;;;;;16.23;9.13;;;;;;;;;;5042900;28;20083;-82
2023/10/20 02:15:26;;;;;;;10.27;8.07;;;;;;;;;;5060754;28;20029;-82
2023/10/20 02:17:51;;;;;;;12.65;8.20;;;;;;;;;;5069474;28;20447;-81
2023/10/20 02:20:20;;;;;;;14.45;8.38;;;;;;;;;;5066096;28;20132;-81
2023/10/20 02:22:49;;;;;;;13.60;9.45;;;;;;;;;;5061316;28;20028;-81
2023/10/20 02:25:16;;;;;;;13.70;9.10;;;;;;;;;;5058069;28;20032;-82
2023/10/20 02:27:42;;;;;;;12.90;8.68;;;;;;;;;;5055777;28;20036;-81
2023/10/20 02:30:09;;;;;;;12.55;8.43;;;;;;;;;;5066256;28;20037;-81
2023/10/20 02:32:36;;;;;;;12.05;8.25;;;;;;;;;;5060235;28;20056;-81
2023/10/20 02:35:01;;;;;;;11.85;8.30;;;;;;;;;;5064078;28;20265;-82
2023/10/20 02:37:27;;;;;;;10.98;7.50;;;;;;;;;;5059642;28;20044;-81
2023/10/20 02:39:53;;;;;;;13.07;7.75;;;;;;;;;;5035228;28;20031;-81
2023/10/20 02:42:18;;;;;;;12.70;7.68;;;;;;;;;;5057433;28;20029;-80
2023/10/20 02:44:44;;;;;;;10.25;6.97;;;;;;;;;;5085276;28;20055;-81
2023/10/20 02:47:09;;;;;;;11.45;7.43;;;;;;;;;;5063827;28;20044;-81
2023/10/20 02:49:35;;;;;;;10.77;7.72;;;;;;;;;;5060231;28;20032;-81
2023/10/20 02:52:01;;;;;;;13.35;7.95;;;;;;;;;;5057520;28;20525;-81
2023/10/20 02:54:26;;;;;;;12.48;6.78;;;;;;;;;;5052905;28;20091;-82
2023/10/20 02:56:56;;;;;;;11.45;7.53;;;;;;;;;;5051771;28;20033;-82
2023/10/20 02:59:21;;;;;;;8.45;6.80;;;;;;;;;;5077320;28;20051;-81
2023/10/20 03:01:47;;;;;;;10.00;6.72;;;;;;;;;;5060907;28;20037;-82
2023/10/20 03:04:12;;;;;;;9.25;6.32;;;;;;;;;;5076257;28;20039;-83
2023/10/20 03:06:38;;;;;;;10.90;6.63;;;;;;;;;;5062646;28;20032;-82
2023/10/20 03:09:04;;;;;;;8.75;6.30;;;;;;;;;;5073220;28;20508;-83
2023/10/20 03:11:30;;;;;;;8.52;6.20;;;;;;;;;;5058498;28;20033;-82
2023/10/20 03:13:56;;;;;;;9.88;6.43;;;;;;;;;;5070974;28;20046;-83
2023/10/20 03:16:22;;;;;;;10.20;6.68;;;;;;;;;;5075902;28;20496;-82
2023/10/20 03:18:48;;;;;;;10.10;6.80;;;;;;;;;;5056148;28;20120;-81
2023/10/20 03:21:14;;;;;;;11.10;6.47;;;;;;;;;;5046265;28;20032;-81
2023/10/20 03:23:43;;;;;;;10.00;7.03;;;;;;;;;;5072876;28;20035;-81
2023/10/20 03:26:12;;;;;;;10.50;6.90;;;;;;;;;;5067904;28;20033;-81
2023/10/20 03:28:39;;;;;;;8.50;6.57;;;;;;;;;;5063392;28;20110;-82
2023/10/20 03:31:04;;;;;;;8.90;6.30;;;;;;;;;;5042742;28;20063;-82
2023/10/20 03:33:30;;;;;;;13.38;6.47;;;;;;;;;;5059512;28;20029;-82
2023/10/20 03:36:04;;;;;;;9.85;6.40;;;;;;;;;;5072294;28;20078;-82
2023/10/20 03:38:30;;;;;;;11.32;6.20;;;;;;;;;;5082863;28;20541;-82
2023/10/20 03:41:11;;;;;;;11.90;7.35;;;;;;;;;;5066453;28;20478;-82
2023/10/20 03:43:37;;;;;;;10.02;6.60;;;;;;;;;;5042605;28;20029;-82
2023/10/20 03:46:04;;;;;;;10.32;6.40;;;;;;;;;;5060213;28;20029;-81
2023/10/20 03:48:31;;;;;;;9.77;6.38;;;;;;;;;;5075280;28;20037;-82
2023/10/20 03:50:58;;;;;;;10.43;6.47;;;;;;;;;;5070840;28;20032;-82
2023/10/20 03:53:27;;;;;;;8.32;5.20;;;;;;;;;;5067396;28;20041;-82
2023/10/20 03:56:04;;;;;;;8.02;5.68;;;;;;;;;;5063479;28;20032;-82
2023/10/20 03:58:30;;;;;;;9.88;5.72;;;;;;;;;;5056597;28;20034;-81
2023/10/20 04:01:02;;;;;;;10.02;5.53;;;;;;;;;;5069430;28;20104;-82
2023/10/20 04:03:31;;;;;;;6.97;4.45;;;;;;;;;;5072294;28;20060;-82
2023/10/20 04:05:57;;;;;;;6.68;4.43;;;;;;;;;;5083966;28;20058;-82
2023/10/20 04:08:23;;;;;;;7.32;4.93;;;;;;;;;;5067416;28;20028;-82
2023/10/20 04:10:55;;;;;;;7.13;5.03;;;;;;;;;;5065859;28;20359;-82
2023/10/20 04:13:23;;;;;;;8.57;5.65;;;;;;;;;;5066494;28;20028;-83
2023/10/20 04:15:54;;;;;;;7.60;5.03;;;;;;;;;;5092364;28;20036;-83
2023/10/20 04:18:20;;;;;;;7.80;5.22;;;;;;;;;;5076916;28;20123;-82
2023/10/20 04:20:49;;;;;;;7.15;5.40;;;;;;;;;;5046612;28;20032;-82
2023/10/20 04:23:16;;;;;;;6.97;5.20;;;;;;;;;;5060876;28;20115;-82
2023/10/20 04:25:55;;;;;;;8.00;5.10;;;;;;;;;;5060527;28;20032;-82
2023/10/20 04:28:41;;;;;;;11.07;5.38;;;;;;;;;;5074216;28;20513;-82
2023/10/20 05:07:54;;;;;;;8.40;5.10;;;;;;;;;;5071530;28;20147;-82
2023/10/20 05:10:20;;;;;;;8.80;4.63;;;;;;;;;;5067166;28;20036;-82
2023/10/20 05:12:49;;;;;;;9.75;4.82;;;;;;;;;;5065087;28;20028;-83
2023/10/20 05:15:15;;;;;;;11.40;4.63;;;;;;;;;;5059450;28;20039;-82
2023/10/20 05:17:41;;;;;;;6.30;4.38;;;;;;;;;;5061130;28;20066;-82
2023/10/20 05:20:12;;;;;;;8.07;4.65;;;;;;;;;;5075041;28;20040;-81
2023/10/20 05:22:39;;;;;;;6.10;4.35;;;;;;;;;;5065857;28;20032;-81
2023/10/20 05:25:06;;;;;;;6.57;4.43;;;;;;;;;;5061458;28;20679;-81
2023/10/20 05:27:32;;;;;;;6.47;4.07;;;;;;;;;;5059498;28;20044;-81
2023/10/20 05:29:57;;;;;;;7.78;3.90;;;;;;;;;;5055135;28;20482;-81
2023/10/20 05:32:23;;;;;;;8.32;4.60;;;;;;;;;;5052742;28;20056;-81
2023/10/20 05:34:53;;;;;;;7.43;4.55;;;;;;;;;;5066671;28;20485;-81
2023/10/20 05:37:21;;;;;;;5.63;4.32;;;;;;;;;;5064853;28;20017;-81
2023/10/20 05:39:47;;;;;;;11.68;4.72;;;;;;;;;;5060230;28;20115;-81
2023/10/20 05:42:13;;;;;;;7.07;4.53;;;;;;;;;;5056116;28;20124;-81
2023/10/20 05:44:47;;;;;;;7.30;4.28;;;;;;;;;;5066825;28;20036;-82
2023/10/20 05:47:13;;;;;;;7.20;5.07;;;;;;;;;;5063756;28;20047;-80
2023/10/20 05:49:39;;;;;;;12.98;7.35;;;;;;;;;;5064622;28;20401;-81
2023/10/20 05:52:05;;;;;;;11.07;6.70;;;;;;;;;;5040892;28;20107;-81
2023/10/20 05:54:31;;;;;;;9.20;6.15;;;;;;;;;;5037034;28;20537;-82
2023/10/20 05:56:57;;;;;;;9.75;6.15;;;;;;;;;;5060532;28;20057;-80
2023/10/20 05:59:22;;;;;;;10.25;7.07;;;;;;;;;;5069942;28;20112;-80
2023/10/20 06:01:48;;;;;;;8.35;5.22;;;;;;;;;;5065350;28;20419;-81
2023/10/20 06:04:13;;;;;;;6.45;4.45;;;;;;;;;;5044004;28;20028;-81
2023/10/20 06:06:39;;;;;;;8.50;5.20;;;;;;;;;;5039775;28;20492;-82
2023/10/20 06:09:06;;;;;;;8.23;5.35;;;;;;;;;;5057190;28;20032;-80
2023/10/20 06:11:35;;;;;;;11.00;4.63;;;;;;;;;;5070220;28;20070;-82
2023/10/20 06:14:01;;;;;;;6.80;4.55;;;;;;;;;;5056063;28;20033;-82
2023/10/20 06:16:26;;;;;;;8.82;5.10;;;;;;;;;;5080266;28;20021;-82
2023/10/20 06:18:52;;;;;;;9.05;4.57;;;;;;;;;;5060886;28;20067;-81
2023/10/20 06:21:18;;;;;;;9.13;3.90;;;;;;;;;;5056042;28;20025;-81
2023/10/20 06:23:43;;;;;;;9.90;4.40;;;;;;;;;;5066229;28;20032;-81
2023/10/20 06:26:09;;;;;;;7.30;4.88;;;;;;;;;;5068749;28;20037;-81
2023/10/20 06:28:35;;;;;;;7.65;4.07;;;;;;;;;;5063585;28;20131;-81
2023/10/20 06:31:01;;;;;;;6.88;4.10;;;;;;;;;;5043068;28;20062;-80
2023/10/20 06:33:33;;;;;;;5.95;3.88;;;;;;;;;;5056657;28;20033;-81
2023/10/20 06:36:10;;;;;;;9.32;5.30;;;;;;;;;;5059865;28;20020;-83
2023/10/20 06:41:10;;;;;;;7.70;4.22;;;;;;;;;;5059043;28;20132;-82
2023/10/20 06:43:35;;;;;;;8.32;5.22;;;;;;;;;;5063533;28;20079;-82
2023/10/20 06:46:01;;;;;;;11.00;5.22;;;;;;;;;;5059648;28;20099;-81
2023/10/20 06:48:28;;;;;;;9.07;4.45;;;;;;;;;;5057363;28;20036;-79
2023/10/20 06:50:54;;;;;;;6.80;4.10;;;;;;;;;;5067573;28;20041;-80
2023/10/20 06:53:19;;;;;;;8.52;4.03;;;;;;;;;;5066641;28;20040;-81
2023/10/20 06:55:46;;;;;;;6.68;4.28;;;;;;;;;;5062411;28;20120;-81
2023/10/20 06:58:13;;;;;;;7.90;4.60;;;;;;;;;;5057578;28;20036;-81
2023/10/20 07:00:39;;;;;;;7.05;4.47;;;;;;;;;;5055747;28;20028;-82
2023/10/20 07:03:04;;;;;;;5.60;4.18;;;;;;;;;;5053349;28;20056;-82
2023/10/20 07:05:31;;;;;;;6.60;4.38;;;;;;;;;;5068369;28;20064;-81
2023/10/20 07:07:59;;;;;;;5.65;4.30;;;;;;;;;;5064000;28;20040;-81
2023/10/20 07:10:26;;;;;;;8.43;4.72;;;;;;;;;;5061193;28;20044;-83
2023/10/20 07:12:52;;;;;;;8.65;5.00;;;;;;;;;;5056687;28;20087;-82
2023/10/20 07:15:17;;;;;;;5.93;4.22;;;;;;;;;;5063441;28;20037;-82
2023/10/20 07:17:43;;;;;;;7.07;4.50;;;;;;;;;;5071320;28;20123;-80
2023/10/20 07:20:09;;;;;;;6.47;4.38;;;;;;;;;;5065347;28;20035;-81
2023/10/20 07:22:34;;;;;;;7.90;4.47;;;;;;;;;;5059941;28;20061;-80
2023/10/20 07:25:00;;;;;;;8.50;4.47;;;;;;;;;;5058003;28;20033;-80
2023/10/20 07:27:26;;;;;;;8.10;4.85;;;;;;;;;;5059132;28;20081;-81
2023/10/20 07:29:52;;;;;;;7.22;4.65;;;;;;;;;;5084075;28;20028;-81
2023/10/20 07:32:17;;;;;;;7.13;4.88;;;;;;;;;;5062920;28;20158;-80
2023/10/20 07:34:43;;;;;;;9.05;6.35;;;;;;;;;;5060240;28;20025;-81
2023/10/20 07:37:08;;;;;;;14.50;9.75;;;;;;;;;;5055700;28;20060;-80
2023/10/20 07:39:34;;;;;;;8.38;5.85;;;;;;;;;;5053309;28;20032;-82
2023/10/20 07:42:00;;;;;;;12.80;6.60;;;;;;;;;;5066139;28;20041;-80
2023/10/20 07:44:25;;;;;;;9.25;6.15;;;;;;;;;;5081784;28;20029;-81
2023/10/20 07:46:51;;;;;;;10.93;5.63;;;;;;;;;;5058451;28;20349;-81
2023/10/20 07:49:16;;;;;;;11.60;5.47;;;;;;;;;;5053390;28;20482;-81
2023/10/20 07:51:42;;;;;;;7.95;5.47;;;;;;;;;;5054374;28;20386;-81
2023/10/20 07:54:11;;;;;;;10.77;5.40;;;;;;;;;;5066118;28;20060;-80
2023/10/20 07:56:38;;;;;;;9.73;6.30;;;;;;;;;;5070929;28;20119;-81
2023/10/20 07:59:04;;;;;;;9.77;5.80;;;;;;;;;;5065955;28;20048;-82
2023/10/20 08:01:29;;;;;;;8.02;5.50;;;;;;;;;;5061200;28;20473;-82
2023/10/20 08:03:55;;;;;;;8.60;5.80;;;;;;;;;;5057118;28;20037;-81
2023/10/20 08:06:22;;;;;;;11.50;7.63;;;;;;;;;;5060038;28;20441;-83
2023/10/20 08:08:47;;;;;;;10.43;5.47;;;;;;;;;;5072022;28;20037;-82
2023/10/20 08:11:13;;;;;;;6.75;4.82;;;;;;;;;;5045689;28;20028;-82
2023/10/20 08:13:38;;;;;;;9.77;5.63;;;;;;;;;;5062578;28;20498;-82
2023/10/20 08:16:06;;;;;;;8.13;6.18;;;;;;;;;;5045832;28;20048;-83
2023/10/20 08:18:34;;;;;;;9.25;4.80;;;;;;;;;;5055559;28;20069;-83
2023/10/20 08:21:08;;;;;;;7.93;5.40;;;;;;;;;;5092206;28;20050;-83
2023/10/20 08:23:37;;;;;;;9.68;5.75;;;;;;;;;;5089233;28;20473;-83
2023/10/20 08:26:05;;;;;;;10.23;5.85;;;;;;;;;;5071388;28;20036;-82
2023/10/20 08:28:31;;;;;;;8.80;5.75;;;;;;;;;;5057588;28;20035;-82
2023/10/20 08:31:10;;;;;;;10.27;4.55;;;;;;;;;;5071862;28;20029;-82
2023/10/20 08:33:38;;;;;;;6.40;4.50;;;;;;;;;;5071776;28;20093;-82
2023/10/20 08:36:14;;;;;;;7.28;4.30;;;;;;;;;;5068068;28;20028;-84
2023/10/20 08:38:42;;;;;;;4.80;3.65;;;;;;;;;;5077246;28;20044;-82
2023/10/20 08:41:12;;;;;;;7.10;3.70;;;;;;;;;;5041016;28;20091;-83
2023/10/20 08:43:39;;;;;;;6.00;3.80;;;;;;;;;;5056191;28;20093;-83
2023/10/20 08:46:05;;;;;;;6.63;3.80;;;;;;;;;;5065230;28;20123;-82
2023/10/20 08:48:31;;;;;;;7.88;4.18;;;;;;;;;;5069346;28;20120;-83
2023/10/20 08:50:59;;;;;;;8.05;4.65;;;;;;;;;;5060248;28;20750;-82
2023/10/20 08:53:26;;;;;;;9.88;5.00;;;;;;;;;;5062184;28;20029;-82
2023/10/20 08:55:52;;;;;;;8.70;4.90;;;;;;;;;;5038204;28;20037;-83
2023/10/20 08:58:18;;;;;;;8.80;4.70;;;;;;;;;;5073956;28;20039;-82
2023/10/20 09:00:43;;;;;;;13.40;6.03;;;;;;;;;;5070767;28;20128;-83
2023/10/20 09:03:10;;;;;;;10.50;5.80;;;;;;;;;;5080773;28;20064;-83
2023/10/20 09:05:35;;;;;;;7.30;5.35;;;;;;;;;;5062952;28;20032;-83
2023/10/20 09:08:01;;;;;;;7.75;5.13;;;;;;;;;;5055912;28;20040;-82
2023/10/20 09:10:27;;;;;;;10.85;5.20;;;;;;;;;;5053860;28;20086;-82
2023/10/20 09:12:52;;;;;;;7.15;5.40;;;;;;;;;;5070083;28;20040;-82
2023/10/20 09:15:18;;;;;;;7.40;5.20;;;;;;;;;;5066226;28;20017;-82
2023/10/20 09:17:44;;;;;;;8.23;5.55;;;;;;;;;;5079814;28;20033;-82
2023/10/20 09:20:14;;;;;;;8.25;5.32;;;;;;;;;;5075655;28;20036;-82
2023/10/20 09:22:40;;;;;;;8.95;5.55;;;;;;;;;;5053784;28;20033;-83
2023/10/20 09:25:12;;;;;;;9.30;6.07;;;;;;;;;;5069306;28;20063;-84
2023/10/20 09:27:38;;;;;;;8.63;6.32;;;;;;;;;;5068540;28;20424;-87
2023/10/20 09:30:08;;;;;;;9.90;6.43;;;;;;;;;;5056917;28;20497;-83
2023/10/20 09:32:38;;;;;;;9.52;6.70;;;;;;;;;;5064566;28;20036;-83
2023/10/20 09:35:04;;;;;;;9.95;6.25;;;;;;;;;;5050872;28;20033;-83
2023/10/20 09:37:30;;;;;;;10.73;6.70;;;;;;;;;;5048824;28;20041;-84
2023/10/20 09:40:06;;;;;;;10.40;6.57;;;;;;;;;;5021953;28;20028;-84
2023/10/20 09:42:45;;;;;;;6.95;4.85;;;;;;;;;;5066598;28;20044;-84
2023/10/20 09:45:15;;;;;;;8.63;5.50;;;;;;;;;;5049033;28;20064;-85
2023/10/20 09:47:43;;;;;;;6.72;4.65;;;;;;;;;;5061167;28;20032;-84
2023/10/20 09:50:11;;;;;;;7.18;4.10;;;;;;;;;;5051421;28;20375;-84
2023/10/20 09:52:39;;;;;;;5.47;3.20;;;;;;;;;;5045510;28;20160;-83
2023/10/20 09:55:07;;;;;;;6.28;3.80;;;;;;;;;;5062183;28;20492;-84
2023/10/20 09:57:33;;;;;;;7.38;3.83;;;;;;;;;;5055748;28;20506;-85
2023/10/20 10:00:04;;;;;;;8.35;4.03;;;;;;;;;;5057165;28;20040;-84
2023/10/20 10:02:31;;;;;;;6.50;4.70;;;;;;;;;;5052986;28;20133;-82
2023/10/20 10:04:57;;;;;;;11.75;4.30;;;;;;;;;;5064799;28;20041;-83
2023/10/20 10:07:41;;;;;;;5.63;3.40;;;;;;;;;;5059386;28;20036;-83
2023/10/20 10:10:06;;;;;;;7.72;3.70;;;;;;;;;;5063311;28;20186;-82
2023/10/20 10:12:32;;;;;;;5.30;3.33;;;;;;;;;;5058121;28;20060;-83
2023/10/20 10:15:12;;;;;;;5.60;3.40;;;;;;;;;;5056288;28;20107;-81
2023/10/20 10:17:49;;;;;;;7.43;4.97;;;;;;;;;;5070248;28;20044;-81
2023/10/20 10:20:46;;;;;;;6.40;3.80;;;;;;;;;;5082605;28;20043;-81
2023/10/20 10:23:15;;;;;;;4.25;3.17;;;;;;;;;;5064508;28;20556;-80
2023/10/20 10:25:46;;;;;;;5.47;3.58;;;;;;;;;;5057035;28;20056;-80
2023/10/20 10:28:20;;;;;;;5.78;3.67;;;;;;;;;;5054068;28;20174;-80
2023/10/20 10:30:51;;;;;;;6.55;3.53;;;;;;;;;;5052431;28;20029;-80
2023/10/20 10:33:23;;;;;;;8.30;3.22;;;;;;;;;;5065475;28;20261;-81
2023/10/20 10:35:49;;;;;;;5.18;3.38;;;;;;;;;;5061912;28;20401;-81
2023/10/20 10:38:19;;;;;;;6.28;3.17;;;;;;;;;;5058720;28;20036;-81
2023/10/20 10:40:46;;;;;;;5.25;3.30;;;;;;;;;;5053435;28;20033;-81
2023/10/20 10:43:16;;;;;;;5.53;3.40;;;;;;;;;;5046674;28;20145;-82
2023/10/20 10:45:42;;;;;;;5.25;4.30;;;;;;;;;;5084170;28;20033;-83
2023/10/20 10:48:13;;;;;;;4.60;3.83;;;;;;;;;;5063928;28;20037;-81
2023/10/20 10:50:46;;;;;;;8.13;4.18;;;;;;;;;;5059205;28;20135;-82
2023/10/20 10:53:13;;;;;;;6.88;3.50;;;;;;;;;;5054365;28;20112;-84
2023/10/20 10:55:40;;;;;;;9.75;3.78;;;;;;;;;;5068055;28;20024;-83
2023/10/20 10:58:13;;;;;;;5.18;3.22;;;;;;;;;;5070829;28;20063;-83
2023/10/20 11:00:40;;;;;;;5.43;3.40;;;;;;;;;;5028470;28;20033;-82
2023/10/20 11:03:07;;;;;;;3.35;2.10;;;;;;;;;;5077965;28;20048;-83
2023/10/20 11:05:33;;;;;;;4.47;2.00;;;;;;;;;;5061472;28;20048;-82
2023/10/20 11:08:01;;;;;;;3.83;1.80;;;;;;;;;;5065277;28;20039;-84
2023/10/20 11:10:28;;;;;;;7.10;2.85;;;;;;;;;;5076505;28;20513;-83
2023/10/20 11:12:55;;;;;;;5.85;2.80;;;;;;;;;;5071676;28;20483;-84
2023/10/20 11:15:20;;;;;;;6.72;2.90;;;;;;;;;;5069757;28;20422;-85
2023/10/20 11:17:48;;;;;;;3.63;2.50;;;;;;;;;;5065261;28;20105;-84
2023/10/20 11:20:18;;;;;;;6.13;2.33;;;;;;;;;;5060124;28;20030;-83
2023/10/20 11:22:44;;;;;;;4.13;2.47;;;;;;;;;;5080119;28;20079;-83
2023/10/20 11:25:18;;;;;;;4.15;2.20;;;;;;;;;;5067769;28;20024;-82
2023/10/20 11:27:43;;;;;;;3.08;2.38;;;;;;;;;;5080809;28;20097;-82
2023/10/20 11:30:12;;;;;;;5.32;2.38;;;;;;;;;;5065183;28;20055;-84
2023/10/20 11:32:38;;;;;;;4.25;2.75;;;;;;;;;;5059309;28;20529;-82
2023/10/20 11:35:04;;;;;;;3.40;2.45;;;;;;;;;;5068798;28;20074;-83
2023/10/20 11:37:30;;;;;;;4.55;2.50;;;;;;;;;;5070294;28;20043;-82
2023/10/20 11:39:55;;;;;;;6.15;2.40;;;;;;;;;;5069715;28;20025;-84
2023/10/20 11:42:21;;;;;;;4.63;2.20;;;;;;;;;;5065583;28;20040;-82
2023/10/20 11:44:46;;;;;;;5.68;2.50;;;;;;;;;;5060362;28;20025;-83
2023/10/20 11:47:12;;;;;;;3.42;2.53;;;;;;;;;;5070355;28;20039;-83
2023/10/20 11:49:37;;;;;;;7.80;2.40;;;;;;;;;;5072734;28;20020;-82
2023/10/20 11:52:05;;;;;;;6.13;2.50;;;;;;;;;;5069260;28;20540;-82
2023/10/20 11:54:31;;;;;;;3.53;2.25;;;;;;;;;;5065219;28;20032;-82
2023/10/20 11:56:57;;;;;;;3.13;2.13;;;;;;;;;;5061932;28;20029;-84
2023/10/20 11:59:22;;;;;;;4.10;2.00;;;;;;;;;;5065451;28;20028;-83
2023/10/20 12:01:47;;;;;;;4.00;2.50;;;;;;;;;;5087738;28;20024;-82
2023/10/20 12:04:13;;;;;;;4.20;2.45;;;;;;;;;;5067735;28;20043;-82
2023/10/20 12:06:39;;;;;;;4.20;2.65;;;;;;;;;;5065572;28;20112;-83
2023/10/20 12:09:08;;;;;;;4.13;2.60;;;;;;;;;;5074549;28;20033;-84
2023/10/20 12:11:38;;;;;;;3.85;2.65;;;;;;;;;;5065694;28;20047;-83
2023/10/20 12:14:04;;;;;;;4.78;2.53;;;;;;;;;;5082279;28;20431;-84
2023/10/20 12:16:30;;;;;;;5.50;2.70;;;;;;;;;;5081129;28;20036;-83
2023/10/20 12:19:01;;;;;;;4.53;2.25;;;;;;;;;;5069283;28;20033;-81
2023/10/20 12:21:28;;;;;;;3.58;2.20;;;;;;;;;;5065654;28;20657;-82
2023/10/20 12:23:54;;;;;;;3.00;2.15;;;;;;;;;;5061867;28;20448;-82
2023/10/20 12:26:19;;;;;;;4.75;2.05;;;;;;;;;;5063217;28;20044;-83
2023/10/20 12:28:45;;;;;;;6.13;1.98;;;;;;;;;;5070591;28;20102;-82
2023/10/20 12:31:10;;;;;;;5.28;2.10;;;;;;;;;;5067725;28;20037;-81
2023/10/20 12:33:36;;;;;;;3.67;2.10;;;;;;;;;;5064491;28;20043;-81
2023/10/20 12:36:01;;;;;;;7.07;2.47;;;;;;;;;;5059648;28;20016;-83
2023/10/20 12:38:27;;;;;;;6.53;2.63;;;;;;;;;;5064661;28;20024;-82
2023/10/20 12:40:52;;;;;;;5.47;2.35;;;;;;;;;;5069830;28;20479;-82
2023/10/20 12:43:18;;;;;;;3.45;1.92;;;;;;;;;;5062323;28;20100;-82
2023/10/20 12:45:44;;;;;;;3.45;2.08;;;;;;;;;;5060221;28;20037;-82
2023/10/20 12:48:09;;;;;;;6.50;2.00;;;;;;;;;;5056853;28;20620;-82
2023/10/20 12:50:36;;;;;;;2.78;1.90;;;;;;;;;;5041510;28;20021;-80
2023/10/20 12:53:07;;;;;;;3.33;2.10;;;;;;;;;;5085857;28;20127;-81
2023/10/20 12:55:33;;;;;;;6.95;2.40;;;;;;;;;;5081950;28;20048;-81
2023/10/20 12:57:59;;;;;;;3.42;2.20;;;;;;;;;;5061735;28;20028;-81
2023/10/20 13:00:28;;;;;;;6.40;2.30;;;;;;;;;;5059734;28;20041;-82
2023/10/20 13:02:53;;;;;;;5.70;2.30;;;;;;;;;;5054732;28;20037;-82
2023/10/20 13:05:21;;;;;;;8.38;2.20;;;;;;;;;;5078595;28;20039;-83
2023/10/20 13:07:47;;;;;;;4.93;1.98;;;;;;;;;;5086767;28;20044;-86
2023/10/20 13:10:13;;;;;;;3.13;2.00;;;;;;;;;;5084475;28;20047;-84
2023/10/20 13:12:38;;;;;;;2.88;1.30;;;;;;;;;;5061014;28;20136;-87
2023/10/20 13:15:04;;;;;;;2.38;1.42;;;;;;;;;;5063674;28;20036;-84
2023/10/20 13:17:33;;;;;;;4.82;1.80;;;;;;;;;;5052513;28;20068;-83
2023/10/20 13:20:00;;;;;;;4.80;1.75;;;;;;;;;;5066892;28;20029;-83
2023/10/20 13:22:25;;;;;;;4.20;2.30;;;;;;;;;;5058198;28;20460;-83
2023/10/20 13:24:51;;;;;;;7.40;2.65;;;;;;;;;;5052186;28;20060;-83
2023/10/20 13:27:18;;;;;;;5.65;2.45;;;;;;;;;;5052868;28;20407;-82
2023/10/20 13:29:48;;;;;;;3.78;2.53;;;;;;;;;;5058622;28;20040;-82
2023/10/20 13:32:13;;;;;;;5.10;2.53;;;;;;;;;;5068693;28;20033;-83
2023/10/20 13:34:39;;;;;;;5.35;2.60;;;;;;;;;;5064968;28;20549;-83
2023/10/20 13:37:05;;;;;;;6.25;2.40;;;;;;;;;;5059933;28;20008;-82
2023/10/20 13:39:31;;;;;;;3.58;2.28;;;;;;;;;;5052396;28;20033;-83
2023/10/20 13:41:57;;;;;;;6.22;2.70;;;;;;;;;;5053419;28;20234;-82
2023/10/20 13:44:23;;;;;;;7.43;3.50;;;;;;;;;;5061536;28;20066;-85
2023/10/20 13:46:50;;;;;;;4.93;2.53;;;;;;;;;;5066515;28;20086;-82
2023/10/20 13:49:15;;;;;;;5.03;2.45;;;;;;;;;;5062536;28;20458;-84
2023/10/20 13:51:41;;;;;;;4.55;2.40;;;;;;;;;;5074000;28;20064;-83
2023/10/20 13:54:06;;;;;;;3.40;2.42;;;;;;;;;;5053474;28;20067;-84
2023/10/20 13:56:32;;;;;;;6.80;2.67;;;;;;;;;;5065103;28;20235;-81
2023/10/20 13:58:59;;;;;;;6.05;4.40;;;;;;;;;;5067747;28;20037;-83
2023/10/20 14:01:24;;;;;;;7.35;4.95;;;;;;;;;;5062023;28;20028;-83
2023/10/20 14:03:50;;;;;;;7.85;2.70;;;;;;;;;;5061393;28;20123;-83
2023/10/20 14:06:16;;;;;;;5.40;2.00;;;;;;;;;;5056639;28;20140;-84
2023/10/20 14:08:42;;;;;;;10.60;2.55;;;;;;;;;;5061899;28;20055;-84
2023/10/20 14:11:08;;;;;;;4.10;2.20;;;;;;;;;;5085345;28;20496;-83
2023/10/20 14:13:33;;;;;;;19.55;12.60;;;;;;;;;;5066507;28;20397;-83
2023/10/20 14:16:00;;;;;;;5.15;3.38;;;;;;;;;;5062727;28;20027;-83
2023/10/20 14:18:26;;;;;;;2.80;1.50;;;;;;;;;;5054524;28;20029;-83
2023/10/20 14:20:53;;;;;;;3.25;2.10;;;;;;;;;;5056455;28;20032;-85
2023/10/20 14:23:19;;;;;;;2.50;1.60;;;;;;;;;;5070219;28;20574;-83
2023/10/20 14:25:46;;;;;;;3.50;1.30;;;;;;;;;;5066831;28;20056;-85
2023/10/20 14:28:12;;;;;;;1.63;1.20;;;;;;;;;;5062555;28;20592;-83
2023/10/20 14:30:38;;;;;;;1.75;1.30;;;;;;;;;;5058727;28;20673;-82
2023/10/20 14:33:03;;;;;;;2.22;1.30;;;;;;;;;;5051066;28;20025;-84
2023/10/20 14:35:29;;;;;;;2.22;1.20;;;;;;;;;;5066299;28;20452;-84
2023/10/20 14:37:57;;;;;;;1.98;1.20;;;;;;;;;;5067525;28;20040;-83
2023/10/20 14:40:23;;;;;;;4.63;1.20;;;;;;;;;;5062757;28;20028;-82
2023/10/20 14:42:48;;;;;;;1.20;1.05;;;;;;;;;;5039268;28;20619;-82
2023/10/20 14:45:14;;;;;;;2.20;1.10;;;;;;;;;;5053275;28;20068;-83
2023/10/20 14:47:39;;;;;;;3.20;1.15;;;;;;;;;;5062755;28;20025;-84
2023/10/20 14:50:06;;;;;;;1.65;1.00;;;;;;;;;;5068563;28;20138;-82
2023/10/20 14:52:31;;;;;;;3.42;1.00;;;;;;;;;;5060562;28;20064;-83
2023/10/20 14:54:57;;;;;;;1.05;0.90;;;;;;;;;;5060948;28;20072;-78
2023/10/20 14:57:23;;;;;;;1.90;0.88;;;;;;;;;;5050232;28;20116;-83
2023/10/20 14:59:49;;;;;;;2.42;1.00;;;;;;;;;;5058167;28;20029;-84
2023/10/20 15:02:14;;;;;;;2.03;1.00;;;;;;;;;;5067349;28;20036;-83
2023/10/20 15:04:40;;;;;;;1.65;0.85;;;;;;;;;;5067131;28;20039;-83
2023/10/20 15:07:05;;;;;;;2.13;0.90;;;;;;;;;;5061108;28;20115;-83
2023/10/20 15:09:32;;;;;;;2.13;0.90;;;;;;;;;;5049365;28;20676;-82
2023/10/20 15:11:58;;;;;;;1.42;0.73;;;;;;;;;;5053360;28;20065;-82
2023/10/20 15:14:24;;;;;;;2.47;0.90;;;;;;;;;;5054651;28;20044;-82
2023/10/20 15:16:49;;;;;;;1.65;0.90;;;;;;;;;;5061639;28;20035;-83